Time;durP1;ratioP1;P1;durP2;ratioP2;P2;SDS_P1;SDS_P2;PMS_P1;PMS_P2;Temp;Humidity;BMP_temperature;BMP_pressure;BME280_temperature;BME280_humidity;BME280_pressure;Samples;Min_cycle;Max_cycle;Signal;HPM_P1;HPM_P2
2022/12/03 00:02:25;;;;;;;17.20;10.38;;;5.80;99.90;;;;;;4843132;29;20121;-65
2022/12/03 00:04:52;;;;;;;16.38;10.32;;;5.80;99.90;;;;;;4843293;29;20077;-67
2022/12/03 00:07:19;;;;;;;16.27;10.63;;;5.80;99.90;;;;;;4843326;29;20106;-68
2022/12/03 00:09:45;;;;;;;16.73;9.98;;;5.80;99.90;;;;;;4843228;29;20041;-68
2022/12/03 00:12:12;;;;;;;17.40;10.40;;;5.80;99.90;;;;;;4843059;29;20054;-67
2022/12/03 00:14:39;;;;;;;16.00;10.23;;;5.80;99.90;;;;;;4842926;29;20038;-67
2022/12/03 00:17:17;;;;;;;17.17;10.50;;;5.80;99.90;;;;;;4842764;29;20046;-68
2022/12/03 00:19:44;;;;;;;15.25;9.57;;;5.80;99.90;;;;;;4841085;29;20057;-68
2022/12/03 00:22:11;;;;;;;16.10;9.82;;;5.80;99.90;;;;;;4843804;29;20392;-66
2022/12/03 00:24:38;;;;;;;16.02;9.57;;;5.80;99.90;;;;;;4858625;29;20470;-68
2022/12/03 00:27:05;;;;;;;16.13;9.88;;;5.80;99.90;;;;;;4860537;29;20489;-67
2022/12/03 00:29:31;;;;;;;15.98;9.80;;;5.80;99.90;;;;;;4861700;29;20045;-67
2022/12/03 00:31:58;;;;;;;13.82;8.55;;;5.90;99.90;;;;;;4861735;29;20092;-68
2022/12/03 00:34:25;;;;;;;18.48;8.85;;;5.90;99.90;;;;;;4861727;29;20053;-68
2022/12/03 00:36:52;;;;;;;14.63;8.65;;;5.90;99.90;;;;;;4859863;29;20045;-69
2022/12/03 00:39:18;;;;;;;14.05;9.48;;;5.80;99.90;;;;;;4861712;29;20173;-68
2022/12/03 00:41:45;;;;;;;14.45;8.43;;;5.90;99.90;;;;;;4861708;29;20049;-66
2022/12/03 00:44:12;;;;;;;12.15;8.65;;;5.90;99.90;;;;;;4861350;29;20124;-68
2022/12/03 00:46:39;;;;;;;13.05;8.50;;;5.90;99.90;;;;;;4861237;29;20101;-68
2022/12/03 00:49:06;;;;;;;11.15;8.10;;;5.90;99.90;;;;;;4861443;29;20377;-67
2022/12/03 00:51:34;;;;;;;14.90;8.93;;;5.90;99.90;;;;;;4859639;29;20086;-69
2022/12/03 00:54:01;;;;;;;16.00;8.50;;;5.90;99.90;;;;;;4861308;29;20053;-69
2022/12/03 00:56:28;;;;;;;17.27;8.68;;;5.90;99.90;;;;;;4858558;29;20037;-67
2022/12/03 00:58:54;;;;;;;13.43;8.60;;;5.90;99.90;;;;;;4861452;29;20101;-68
2022/12/03 01:01:21;;;;;;;12.65;9.00;;;5.90;99.90;;;;;;4860793;29;20101;-70
2022/12/03 01:03:48;;;;;;;13.60;8.93;;;5.80;99.90;;;;;;4861446;29;20431;-68
2022/12/03 01:06:15;;;;;;;15.10;9.55;;;5.80;99.90;;;;;;4859711;29;20049;-70
2022/12/03 01:08:41;;;;;;;14.70;9.20;;;5.80;99.90;;;;;;4860992;29;20045;-68
2022/12/03 01:11:36;;;;;;;16.00;9.73;;;5.80;99.90;;;;;;4859422;29;20053;-69
2022/12/03 01:13:55;;;;;;;18.50;10.00;;;5.80;99.90;;;;;;4861110;29;20109;-68
2022/12/03 01:16:22;;;;;;;12.77;9.00;;;5.90;99.90;;;;;;4860275;29;20066;-67
2022/12/03 01:18:51;;;;;;;16.38;9.75;;;5.80;99.90;;;;;;4860787;29;20478;-67
2022/12/03 01:21:17;;;;;;;16.02;9.82;;;5.90;99.90;;;;;;4860971;29;20467;-70
2022/12/03 01:23:44;;;;;;;18.77;9.93;;;5.90;99.90;;;;;;4861172;29;20124;-69
2022/12/03 01:26:11;;;;;;;18.75;10.82;;;5.90;99.90;;;;;;4860596;29;20110;-69
2022/12/03 01:28:38;;;;;;;15.95;10.18;;;5.90;99.90;;;;;;4860994;29;20402;-71
2022/12/03 01:33:50;;;;;;;15.00;10.48;;;5.80;99.90;;;;;;4860511;29;20558;-68
2022/12/03 01:36:16;;;;;;;16.75;11.93;;;5.80;99.90;;;;;;4859591;29;20102;-67
2022/12/03 01:38:43;;;;;;;17.02;10.80;;;5.80;99.90;;;;;;4860706;29;20049;-65
2022/12/03 01:41:10;;;;;;;18.77;11.73;;;5.80;99.90;;;;;;4859338;29;20061;-68
2022/12/03 01:43:37;;;;;;;18.25;10.13;;;5.80;99.90;;;;;;4860859;29;20196;-69
2022/12/03 01:46:04;;;;;;;18.38;12.07;;;5.80;99.90;;;;;;4860654;29;20056;-67
2022/12/03 01:48:31;;;;;;;19.75;12.20;;;5.70;99.90;;;;;;4861009;29;20094;-67
2022/12/03 01:50:57;;;;;;;18.30;12.60;;;5.70;99.90;;;;;;4860575;29;20053;-69
2022/12/03 01:53:24;;;;;;;18.35;12.63;;;5.70;99.90;;;;;;4860805;29;20054;-67
2022/12/03 01:55:51;;;;;;;19.45;12.23;;;5.60;99.90;;;;;;4860645;29;20050;-68
2022/12/03 01:58:18;;;;;;;18.52;12.85;;;5.70;99.90;;;;;;4860566;29;20041;-69
2022/12/03 02:00:44;;;;;;;18.42;12.88;;;5.70;99.90;;;;;;4860912;29;20046;-69
2022/12/03 02:03:11;;;;;;;23.65;13.05;;;5.70;99.90;;;;;;4863412;29;20446;-68
2022/12/03 02:05:38;;;;;;;22.15;13.35;;;5.70;99.90;;;;;;4863213;29;20342;-67
2022/12/03 02:08:05;;;;;;;18.83;12.60;;;5.70;99.90;;;;;;4863979;29;20057;-68
2022/12/03 02:10:31;;;;;;;19.52;12.93;;;5.70;99.90;;;;;;4862825;29;20056;-67
2022/12/03 02:12:58;;;;;;;18.80;12.80;;;5.70;99.90;;;;;;4863904;29;20469;-68
2022/12/03 02:15:25;;;;;;;19.05;11.85;;;5.70;99.90;;;;;;4862547;29;20038;-69
2022/12/03 02:17:52;;;;;;;17.85;12.18;;;5.60;99.90;;;;;;4863756;29;20045;-68
2022/12/03 02:20:18;;;;;;;19.02;11.90;;;5.60;99.90;;;;;;4863572;29;20110;-66
2022/12/03 02:22:45;;;;;;;19.92;12.48;;;5.70;99.90;;;;;;4862643;29;20087;-68
2022/12/03 02:25:12;;;;;;;18.75;13.30;;;5.60;99.90;;;;;;4863458;29;20566;-69
2022/12/03 02:27:39;;;;;;;19.17;13.07;;;5.60;99.90;;;;;;4863688;29;20393;-67
2022/12/03 02:30:05;;;;;;;20.38;13.32;;;5.60;99.90;;;;;;4863381;29;20077;-68
2022/12/03 02:32:32;;;;;;;18.65;12.00;;;5.60;99.90;;;;;;4862195;29;20053;-70
2022/12/03 02:34:59;;;;;;;26.30;13.23;;;5.60;99.90;;;;;;4863353;29;20049;-68
2022/12/03 02:37:26;;;;;;;20.92;12.60;;;5.60;99.90;;;;;;4863892;29;20054;-68
2022/12/03 02:39:52;;;;;;;20.65;13.45;;;5.60;99.90;;;;;;4863756;29;20048;-68
2022/12/03 02:42:34;;;;;;;18.42;11.98;;;5.60;99.90;;;;;;4863984;29;20041;-68
2022/12/03 02:45:01;;;;;;;22.52;13.00;;;5.60;99.90;;;;;;4863654;29;20073;-66
2022/12/03 02:47:31;;;;;;;21.08;11.27;;;5.60;99.90;;;;;;4863600;29;20050;-69
2022/12/03 02:49:58;;;;;;;18.55;11.95;;;5.60;99.90;;;;;;4863724;29;20481;-71
2022/12/03 02:52:24;;;;;;;22.35;12.43;;;5.60;99.90;;;;;;4863908;29;20090;-67
2022/12/03 02:54:51;;;;;;;22.48;12.13;;;5.60;99.90;;;;;;4862483;29;20045;-67
2022/12/03 02:57:18;;;;;;;18.92;10.77;;;5.70;99.90;;;;;;4863334;29;20048;-67
2022/12/03 02:59:45;;;;;;;17.80;11.23;;;5.70;99.90;;;;;;4863655;29;20106;-69
2022/12/03 03:02:12;;;;;;;20.40;11.52;;;5.70;99.90;;;;;;4863365;29;20077;-68
2022/12/03 03:04:39;;;;;;;18.42;11.20;;;5.70;99.90;;;;;;4863756;29;20041;-68
2022/12/03 03:07:05;;;;;;;16.45;10.80;;;5.70;99.90;;;;;;4863604;29;20466;-68
2022/12/03 03:09:32;;;;;;;17.33;10.25;;;5.70;99.90;;;;;;4863373;29;20509;-68
2022/12/03 03:11:59;;;;;;;14.65;9.55;;;5.70;99.90;;;;;;4862978;29;20057;-67
2022/12/03 03:14:26;;;;;;;14.63;9.48;;;5.70;99.90;;;;;;4863433;29;20049;-67
2022/12/03 03:16:56;;;;;;;17.85;9.60;;;5.70;99.90;;;;;;4863346;29;20077;-68
2022/12/03 03:19:23;;;;;;;15.85;8.73;;;5.70;99.90;;;;;;4863150;29;20073;-70
2022/12/03 03:21:50;;;;;;;21.63;9.60;;;5.70;99.90;;;;;;4862967;29;20050;-68
2022/12/03 03:24:16;;;;;;;15.60;8.93;;;5.70;99.90;;;;;;4861501;29;20045;-67
2022/12/03 03:26:43;;;;;;;16.13;8.73;;;5.70;99.90;;;;;;4863368;29;20470;-68
2022/12/03 03:29:10;;;;;;;18.13;8.85;;;5.70;99.90;;;;;;4863048;29;20050;-69
2022/12/03 03:31:37;;;;;;;15.57;8.75;;;5.70;99.90;;;;;;4862865;29;20145;-68
2022/12/03 03:34:03;;;;;;;20.23;9.00;;;5.70;99.90;;;;;;4862521;29;20045;-68
2022/12/03 03:36:30;;;;;;;14.65;8.95;;;5.70;99.90;;;;;;4862680;29;20388;-68
2022/12/03 03:38:57;;;;;;;16.42;8.10;;;5.70;99.90;;;;;;4862722;29;20456;-68
2022/12/03 03:41:23;;;;;;;12.90;8.48;;;5.70;99.90;;;;;;4862972;29;20106;-67
2022/12/03 03:43:50;;;;;;;12.48;8.20;;;5.70;99.90;;;;;;4862768;29;20090;-67
2022/12/03 03:46:17;;;;;;;18.23;8.57;;;5.70;99.90;;;;;;4862510;29;20109;-68
2022/12/03 03:48:44;;;;;;;17.52;8.40;;;5.70;99.90;;;;;;4862642;29;20058;-65
2022/12/03 03:51:11;;;;;;;14.95;8.43;;;5.70;99.90;;;;;;4861239;29;20054;-69
2022/12/03 03:53:37;;;;;;;16.02;8.65;;;5.70;99.90;;;;;;4862317;29;20053;-68
2022/12/03 03:56:04;;;;;;;13.13;7.68;;;5.70;99.90;;;;;;4862190;29;20053;-69
2022/12/03 03:58:31;;;;;;;14.65;8.35;;;5.70;99.90;;;;;;4862199;29;20042;-68
2022/12/03 04:00:58;;;;;;;19.23;8.52;;;5.70;99.90;;;;;;4862263;29;20045;-68
2022/12/03 04:03:24;;;;;;;19.08;8.80;;;5.70;99.90;;;;;;4862539;29;20050;-69
2022/12/03 04:05:51;;;;;;;12.80;7.80;;;5.70;99.90;;;;;;4861535;29;20049;-68
2022/12/03 04:08:18;;;;;;;14.15;8.48;;;5.70;99.90;;;;;;4862213;29;20041;-68
2022/12/03 04:13:30;;;;;;;17.45;8.38;;;5.60;99.90;;;;;;4862020;29;20193;-68
2022/12/03 04:15:57;;;;;;;19.02;9.10;;;5.70;99.90;;;;;;4861759;29;20565;-68
2022/12/03 04:18:42;;;;;;;19.42;9.18;;;5.70;99.90;;;;;;4860585;29;20128;-70
2022/12/03 04:23:54;;;;;;;15.30;8.80;;;5.70;99.90;;;;;;4861576;29;20049;-70
2022/12/03 04:29:07;;;;;;;20.15;9.60;;;5.70;99.90;;;;;;4862044;29;20049;-70
2022/12/03 04:37:04;;;;;;;21.58;10.25;;;5.70;99.90;;;;;;4861365;29;20045;-64
2022/12/03 04:39:31;;;;;;;16.48;10.15;;;5.70;99.90;;;;;;4862129;29;20045;-67
2022/12/03 04:41:58;;;;;;;19.02;10.88;;;5.70;99.90;;;;;;4860943;29;20084;-67
2022/12/03 04:44:36;;;;;;;16.27;10.82;;;5.60;99.90;;;;;;4861323;29;20438;-66
2022/12/03 04:47:03;;;;;;;18.42;10.70;;;5.70;99.90;;;;;;4862029;29;20049;-68
2022/12/03 04:49:30;;;;;;;18.52;11.50;;;5.70;99.90;;;;;;4861902;29;20100;-66
2022/12/03 04:51:57;;;;;;;19.02;11.82;;;5.60;99.90;;;;;;4861844;29;20049;-68
2022/12/03 04:54:23;;;;;;;23.02;12.63;;;5.60;99.90;;;;;;4861459;29;20101;-66
2022/12/03 04:56:50;;;;;;;21.10;12.93;;;5.60;99.90;;;;;;4861510;29;20041;-67
2022/12/03 04:59:17;;;;;;;27.80;13.70;;;5.60;99.90;;;;;;4861675;29;20052;-65
2022/12/03 05:01:44;;;;;;;21.52;13.85;;;5.60;99.90;;;;;;4860256;29;20094;-68
2022/12/03 05:04:11;;;;;;;20.73;13.43;;;5.60;99.90;;;;;;4861603;29;20041;-67
2022/12/03 05:06:37;;;;;;;25.63;14.25;;;5.60;99.90;;;;;;4860805;29;20446;-67
2022/12/03 05:09:05;;;;;;;24.15;14.10;;;5.60;99.90;;;;;;4861476;29;20077;-67
2022/12/03 05:11:31;;;;;;;25.05;14.10;;;5.50;99.90;;;;;;4861043;29;20052;-68
2022/12/03 05:13:58;;;;;;;26.00;14.38;;;5.50;99.90;;;;;;4861204;29;20053;-66
2022/12/03 05:16:27;;;;;;;24.05;14.48;;;5.50;99.90;;;;;;4861122;29;20042;-69
2022/12/03 05:18:54;;;;;;;24.45;14.88;;;5.50;99.90;;;;;;4861347;29;20057;-67
2022/12/03 05:21:21;;;;;;;24.40;15.25;;;5.40;99.90;;;;;;4861379;29;20059;-69
2022/12/03 05:23:47;;;;;;;23.50;14.85;;;5.50;99.90;;;;;;4861207;29;20041;-66
2022/12/03 05:26:14;;;;;;;24.90;15.10;;;5.50;99.90;;;;;;4860834;29;20144;-67
2022/12/03 05:28:41;;;;;;;29.75;15.75;;;5.40;99.90;;;;;;4860966;29;20069;-67
2022/12/03 05:31:08;;;;;;;31.10;15.20;;;5.50;99.90;;;;;;4861316;29;20062;-67
2022/12/03 05:33:34;;;;;;;29.23;16.38;;;5.50;99.90;;;;;;4861248;29;20053;-67
2022/12/03 05:36:09;;;;;;;26.70;15.68;;;5.50;99.90;;;;;;4863231;29;20046;-67
2022/12/03 05:38:36;;;;;;;26.45;14.95;;;5.40;99.90;;;;;;4864877;29;20077;-66
2022/12/03 05:42:52;;;;;;;26.27;14.80;;;5.40;99.90;;;;;;4863632;29;20133;-67
2022/12/03 05:43:49;;;;;;;27.33;14.77;;;5.40;99.90;;;;;;4864995;29;20373;-67
2022/12/03 05:46:16;;;;;;;25.77;15.98;;;5.40;99.90;;;;;;4864677;29;20046;-68
2022/12/03 05:48:43;;;;;;;24.63;14.25;;;5.40;99.90;;;;;;4865037;29;20477;-65
2022/12/03 05:51:10;;;;;;;26.35;15.10;;;5.40;99.90;;;;;;4864855;29;20510;-66
2022/12/03 05:53:37;;;;;;;23.83;14.40;;;5.40;99.90;;;;;;4864755;29;20050;-66
2022/12/03 05:56:03;;;;;;;22.80;14.45;;;5.40;99.90;;;;;;4864641;29;20136;-67
2022/12/03 05:58:30;;;;;;;24.13;14.00;;;5.50;99.90;;;;;;4864612;29;20069;-66
2022/12/03 06:00:57;;;;;;;24.33;13.75;;;5.50;99.90;;;;;;4864500;29;20124;-64
2022/12/03 06:03:24;;;;;;;26.27;13.68;;;5.50;99.90;;;;;;4864623;29;20109;-66
2022/12/03 06:05:50;;;;;;;25.95;14.50;;;5.50;99.90;;;;;;4864224;29;20561;-67
2022/12/03 06:08:17;;;;;;;19.48;12.80;;;5.50;99.90;;;;;;4863062;29;20086;-67
2022/12/03 06:10:44;;;;;;;21.75;12.57;;;5.60;99.90;;;;;;4864347;29;20050;-67
2022/12/03 06:13:11;;;;;;;17.92;12.18;;;5.50;99.90;;;;;;4864387;29;20046;-65
2022/12/03 06:15:38;;;;;;;19.45;12.30;;;5.50;99.90;;;;;;4864284;29;20124;-68
2022/12/03 06:18:09;;;;;;;21.20;12.75;;;5.60;99.90;;;;;;4864172;29;20062;-68
2022/12/03 06:20:36;;;;;;;24.45;13.48;;;5.60;99.90;;;;;;4864347;29;20481;-66
2022/12/03 06:23:03;;;;;;;21.73;12.23;;;5.60;99.90;;;;;;4864103;29;20041;-68
2022/12/03 06:25:29;;;;;;;20.67;11.80;;;5.60;99.90;;;;;;4864317;29;20390;-69
2022/12/03 06:27:56;;;;;;;21.95;11.35;;;5.70;99.90;;;;;;4863939;29;20204;-70
2022/12/03 06:30:23;;;;;;;21.63;12.43;;;5.60;99.90;;;;;;4863660;29;20061;-69
2022/12/03 06:32:50;;;;;;;20.55;11.80;;;5.70;99.90;;;;;;4864532;29;20133;-68
2022/12/03 06:35:32;;;;;;;21.98;11.65;;;5.60;99.90;;;;;;4833298;29;20058;-65
2022/12/03 06:37:59;;;;;;;18.92;12.10;;;5.70;99.90;;;;;;4863666;29;20501;-66
2022/12/03 06:40:26;;;;;;;19.80;11.50;;;5.70;99.90;;;;;;4862805;29;20084;-68
2022/12/03 06:42:53;;;;;;;18.17;11.48;;;5.60;99.90;;;;;;4863554;29;20069;-67
2022/12/03 06:45:19;;;;;;;16.73;10.77;;;5.70;99.90;;;;;;4862339;29;20394;-70
2022/12/03 06:47:46;;;;;;;19.42;11.68;;;5.70;99.90;;;;;;4861379;29;20148;-70
2022/12/03 06:50:13;;;;;;;21.15;11.02;;;5.70;99.90;;;;;;4863129;29;20109;-68
2022/12/03 06:52:39;;;;;;;19.50;10.93;;;5.80;99.90;;;;;;4863155;29;20129;-67
2022/12/03 06:55:06;;;;;;;19.70;10.68;;;5.70;99.90;;;;;;4863196;29;20042;-68
2022/12/03 06:57:33;;;;;;;15.02;10.30;;;5.70;99.90;;;;;;4862528;29;20430;-66
2022/12/03 07:00:01;;;;;;;20.20;10.57;;;5.70;99.90;;;;;;4863042;29;20509;-67
2022/12/03 07:02:27;;;;;;;18.48;10.55;;;5.70;99.90;;;;;;4862946;29;20061;-70
2022/12/03 07:04:54;;;;;;;17.42;9.63;;;5.70;99.90;;;;;;4863157;29;20033;-67
2022/12/03 07:07:21;;;;;;;16.00;10.07;;;5.70;99.90;;;;;;4863241;29;20136;-65
2022/12/03 07:09:48;;;;;;;14.30;9.85;;;5.80;99.90;;;;;;4862987;29;20053;-67
2022/12/03 07:12:15;;;;;;;15.65;10.27;;;5.80;99.90;;;;;;4863029;29;20106;-67
2022/12/03 07:14:41;;;;;;;17.02;9.63;;;5.80;99.90;;;;;;4863092;29;20045;-69
2022/12/03 07:17:08;;;;;;;19.45;10.07;;;5.80;99.90;;;;;;4863373;29;20569;-67
2022/12/03 07:19:35;;;;;;;15.73;8.88;;;5.80;99.90;;;;;;4863135;29;20121;-69
2022/12/03 07:22:02;;;;;;;16.73;9.38;;;5.80;99.90;;;;;;4863230;29;20070;-68
2022/12/03 07:24:28;;;;;;;20.55;10.02;;;5.80;99.90;;;;;;4861896;29;20500;-68
2022/12/03 07:26:55;;;;;;;18.70;9.82;;;5.80;99.90;;;;;;4862603;29;20057;-66
2022/12/03 07:29:22;;;;;;;16.60;9.32;;;5.80;99.90;;;;;;4862986;29;20042;-66
2022/12/03 07:31:48;;;;;;;17.05;9.20;;;5.80;99.90;;;;;;4861662;29;20443;-68
2022/12/03 07:34:15;;;;;;;16.98;8.88;;;5.80;99.90;;;;;;4862829;29;20050;-68
2022/12/03 07:36:42;;;;;;;17.05;9.30;;;5.80;99.90;;;;;;4846178;29;20049;-67
2022/12/03 07:39:09;;;;;;;16.95;9.00;;;5.80;99.90;;;;;;4861491;29;20093;-66
2022/12/03 07:41:36;;;;;;;19.05;9.13;;;5.80;99.90;;;;;;4862592;29;20045;-69
2022/12/03 07:44:03;;;;;;;17.60;8.82;;;5.80;99.90;;;;;;4861431;29;20049;-69
2022/12/03 07:46:38;;;;;;;15.52;9.48;;;5.80;99.90;;;;;;4860903;29;20454;-67
2022/12/03 07:49:04;;;;;;;17.92;8.90;;;5.80;99.90;;;;;;4862119;29;20041;-64
2022/12/03 07:51:31;;;;;;;18.48;9.40;;;5.80;99.90;;;;;;4861563;29;20041;-68
2022/12/03 07:53:58;;;;;;;14.55;8.75;;;5.70;99.90;;;;;;4861109;29;20367;-68
2022/12/03 07:56:25;;;;;;;15.90;8.70;;;5.70;99.90;;;;;;4861231;29;20046;-66
2022/12/03 07:58:51;;;;;;;14.77;8.77;;;5.70;99.90;;;;;;4860470;29;20113;-67
2022/12/03 08:01:18;;;;;;;15.70;9.00;;;5.70;99.90;;;;;;4861218;29;20051;-67
2022/12/03 08:03:45;;;;;;;19.83;8.70;;;5.70;99.90;;;;;;4861019;29;20041;-67
2022/12/03 08:06:12;;;;;;;16.40;8.10;;;5.60;99.90;;;;;;4861509;29;20049;-67
2022/12/03 08:08:39;;;;;;;13.93;7.97;;;5.60;99.90;;;;;;4860175;29;20378;-68
2022/12/03 08:11:05;;;;;;;15.05;8.23;;;5.70;99.90;;;;;;4860100;29;20056;-68
2022/12/03 08:13:32;;;;;;;14.95;8.18;;;5.70;99.90;;;;;;4861133;29;20045;-67
2022/12/03 08:15:59;;;;;;;15.40;7.03;;;5.70;99.90;;;;;;4875512;29;20409;-66
2022/12/03 08:18:26;;;;;;;16.30;7.63;;;5.60;99.90;;;;;;4857657;29;20406;-68
2022/12/03 08:20:52;;;;;;;15.40;8.43;;;5.70;99.90;;;;;;4860618;29;20050;-67
2022/12/03 08:23:19;;;;;;;13.25;7.45;;;5.70;99.90;;;;;;4860577;29;20049;-66
2022/12/03 08:25:46;;;;;;;15.55;7.85;;;5.70;99.90;;;;;;4852236;29;20042;-68
2022/12/03 08:28:13;;;;;;;14.73;7.15;;;5.70;99.90;;;;;;4860871;29;20474;-66
2022/12/03 08:30:39;;;;;;;13.57;7.85;;;5.80;99.90;;;;;;4861767;29;20096;-69
2022/12/03 08:33:06;;;;;;;12.88;7.47;;;5.80;99.90;;;;;;4861697;29;20124;-67
2022/12/03 08:35:33;;;;;;;13.85;7.75;;;5.80;99.90;;;;;;4861811;29;20102;-66
2022/12/03 08:38:00;;;;;;;12.40;7.55;;;5.80;99.90;;;;;;4861520;29;20048;-67
2022/12/03 08:40:27;;;;;;;11.38;6.95;;;5.80;99.90;;;;;;4860459;29;20128;-65
2022/12/03 08:42:54;;;;;;;15.40;7.57;;;5.80;99.90;;;;;;4861931;29;20056;-69
2022/12/03 08:45:20;;;;;;;11.63;7.40;;;5.80;99.90;;;;;;4860002;29;20052;-69
2022/12/03 08:47:47;;;;;;;14.10;7.32;;;5.80;99.90;;;;;;4861655;29;20061;-67
2022/12/03 08:50:14;;;;;;;11.68;7.05;;;5.90;99.90;;;;;;4861845;29;20057;-68
2022/12/03 08:52:41;;;;;;;14.07;6.50;;;5.90;99.90;;;;;;4861753;29;20061;-68
2022/12/03 08:55:07;;;;;;;16.45;7.10;;;5.90;99.90;;;;;;4860033;29;20056;-67
2022/12/03 08:57:34;;;;;;;15.10;7.55;;;5.90;99.90;;;;;;4861114;29;20041;-68
2022/12/03 09:00:01;;;;;;;10.73;6.80;;;5.90;99.90;;;;;;4861797;29;20061;-69
2022/12/03 09:02:28;;;;;;;12.15;7.03;;;5.90;99.90;;;;;;4861185;29;20076;-68
2022/12/03 09:04:55;;;;;;;12.75;7.10;;;6.00;99.90;;;;;;4861220;29;20048;-65
2022/12/03 09:07:22;;;;;;;13.95;6.75;;;6.00;99.90;;;;;;4859913;29;20084;-67
2022/12/03 09:09:48;;;;;;;14.05;7.50;;;6.00;99.90;;;;;;4861416;29;20500;-68
2022/12/03 09:12:15;;;;;;;11.38;6.93;;;6.00;99.90;;;;;;4861427;29;20049;-66
2022/12/03 09:14:42;;;;;;;13.70;7.05;;;6.00;99.90;;;;;;4860989;29;20490;-66
2022/12/03 09:17:08;;;;;;;12.70;6.43;;;6.00;99.90;;;;;;4861299;29;20077;-66
2022/12/03 09:19:36;;;;;;;12.90;6.90;;;6.10;99.90;;;;;;4861351;29;20045;-66
2022/12/03 09:22:10;;;;;;;12.93;6.57;;;6.10;99.90;;;;;;4861157;29;20042;-68
2022/12/03 09:24:36;;;;;;;12.95;6.65;;;6.10;99.90;;;;;;4861338;29;20128;-67
2022/12/03 09:27:03;;;;;;;11.68;7.03;;;6.10;99.90;;;;;;4861361;29;20081;-69
2022/12/03 09:29:30;;;;;;;11.70;6.88;;;6.10;99.90;;;;;;4859071;29;20106;-68
2022/12/03 09:31:57;;;;;;;13.55;7.00;;;6.10;99.90;;;;;;4859070;29;20061;-69
2022/12/03 09:34:25;;;;;;;14.02;7.22;;;6.20;99.90;;;;;;4859030;29;20126;-67
2022/12/03 09:36:51;;;;;;;12.68;6.53;;;6.20;99.90;;;;;;4859945;29;20149;-67
2022/12/03 09:39:18;;;;;;;13.40;6.72;;;6.20;99.90;;;;;;4858838;29;20053;-66
2022/12/03 09:41:45;;;;;;;11.70;6.25;;;6.20;99.90;;;;;;4860229;29;20045;-66
2022/12/03 09:44:11;;;;;;;11.80;6.35;;;6.30;99.90;;;;;;4859241;29;20097;-66
2022/12/03 09:46:43;;;;;;;14.57;6.40;;;6.30;99.90;;;;;;4860241;29;20042;-68
2022/12/03 09:49:10;;;;;;;13.98;6.55;;;6.30;99.90;;;;;;4860638;29;20131;-69
2022/12/03 09:51:41;;;;;;;14.48;6.90;;;6.40;99.90;;;;;;4861096;29;20049;-67
2022/12/03 09:54:10;;;;;;;13.52;7.80;;;6.40;99.90;;;;;;4861126;29;20045;-68
2022/12/03 09:56:37;;;;;;;11.63;6.07;;;6.40;99.90;;;;;;4859839;29;20041;-68
2022/12/03 09:59:03;;;;;;;17.40;6.80;;;6.40;99.90;;;;;;4860983;29;20074;-68
2022/12/03 10:01:30;;;;;;;13.35;6.45;;;6.40;99.90;;;;;;4860914;29;20038;-67
2022/12/03 10:03:57;;;;;;;17.88;6.43;;;6.50;99.90;;;;;;4861030;29;20124;-68
2022/12/03 10:06:24;;;;;;;9.25;5.80;;;6.50;99.90;;;;;;4859898;29;20052;-70
2022/12/03 10:08:51;;;;;;;13.18;6.95;;;6.50;99.90;;;;;;4861035;29;20410;-68
2022/12/03 10:11:17;;;;;;;10.00;5.38;;;6.60;99.90;;;;;;4860731;29;20124;-68
2022/12/03 10:13:44;;;;;;;13.02;6.18;;;6.60;99.90;;;;;;4859475;29;20078;-70
2022/12/03 10:16:12;;;;;;;12.77;6.30;;;6.60;99.90;;;;;;4860604;29;20129;-67
2022/12/03 10:18:38;;;;;;;14.93;6.20;;;6.70;99.90;;;;;;4860792;29;20050;-66
2022/12/03 10:21:07;;;;;;;10.00;5.63;;;6.80;99.90;;;;;;4860641;29;20048;-65
2022/12/03 10:23:34;;;;;;;10.48;5.82;;;6.80;99.90;;;;;;4863256;29;20094;-66
2022/12/03 10:26:03;;;;;;;11.77;6.00;;;6.80;99.90;;;;;;4863713;29;20462;-67
2022/12/03 10:28:30;;;;;;;13.13;5.93;;;6.80;99.90;;;;;;4863735;29;20049;-66
2022/12/03 10:30:57;;;;;;;13.52;5.70;;;6.90;99.90;;;;;;4863823;29;20073;-68
2022/12/03 10:33:24;;;;;;;11.43;5.57;;;6.90;99.90;;;;;;4864190;29;20052;-69
2022/12/03 10:35:51;;;;;;;11.38;6.13;;;6.90;99.90;;;;;;4863772;29;20109;-68
2022/12/03 10:38:18;;;;;;;11.45;6.53;;;7.00;99.90;;;;;;4863387;29;20105;-70
2022/12/03 10:40:45;;;;;;;12.75;5.65;;;7.00;99.90;;;;;;4863847;29;20117;-68
2022/12/03 10:43:12;;;;;;;10.65;5.53;;;7.10;99.90;;;;;;4863704;29;20045;-66
2022/12/03 10:45:38;;;;;;;15.65;4.97;;;7.00;99.90;;;;;;4862158;29;20080;-68
2022/12/03 10:48:05;;;;;;;13.32;5.60;;;7.00;99.90;;;;;;4863473;29;20069;-67
2022/12/03 10:50:32;;;;;;;12.05;5.65;;;7.00;99.90;;;;;;4862166;29;20054;-66
2022/12/03 10:52:59;;;;;;;13.43;5.70;;;7.10;99.90;;;;;;4863293;29;20069;-67
2022/12/03 10:55:25;;;;;;;9.90;5.13;;;7.10;99.90;;;;;;4862191;29;20109;-67
2022/12/03 10:57:52;;;;;;;11.60;5.10;;;7.10;99.90;;;;;;4863768;29;20046;-66
2022/12/03 11:00:19;;;;;;;12.55;5.80;;;7.10;99.90;;;;;;4863951;29;20113;-67
2022/12/03 11:02:45;;;;;;;13.43;5.03;;;7.10;99.90;;;;;;4863504;29;20041;-67
2022/12/03 11:05:20;;;;;;;10.90;5.35;;;7.10;99.90;;;;;;4863585;29;20534;-65
2022/12/03 11:07:47;;;;;;;9.82;4.80;;;7.20;99.90;;;;;;4863201;29;20077;-68
2022/12/03 11:10:13;;;;;;;12.80;4.82;;;7.20;99.90;;;;;;4864104;29;20060;-67
2022/12/03 11:12:40;;;;;;;17.25;5.47;;;7.20;99.90;;;;;;4864721;29;20053;-66
2022/12/03 11:15:07;;;;;;;13.55;5.20;;;7.20;99.90;;;;;;4863613;29;20059;-66
2022/12/03 11:17:34;;;;;;;13.95;5.18;;;7.20;99.90;;;;;;4863192;29;20450;-67
2022/12/03 11:20:00;;;;;;;9.98;4.78;;;7.30;99.90;;;;;;4863709;29;20045;-67
2022/12/03 11:22:27;;;;;;;12.68;5.18;;;7.30;99.90;;;;;;4863094;29;20098;-66
2022/12/03 11:24:54;;;;;;;13.73;5.80;;;7.30;99.90;;;;;;4863431;29;20078;-64
2022/12/03 11:27:21;;;;;;;11.93;5.40;;;7.30;99.90;;;;;;4861939;29;20053;-68
2022/12/03 11:29:48;;;;;;;13.10;5.28;;;7.30;99.90;;;;;;4863454;29;20073;-67
2022/12/03 11:32:14;;;;;;;11.10;5.05;;;7.30;99.90;;;;;;4862946;29;20081;-70
2022/12/03 11:34:41;;;;;;;10.80;5.10;;;7.30;99.90;;;;;;4862538;29;20142;-67
2022/12/03 11:37:08;;;;;;;12.20;5.90;;;7.30;99.90;;;;;;4862997;29;20056;-69
2022/12/03 11:39:35;;;;;;;8.73;5.47;;;7.30;99.90;;;;;;4861759;29;20077;-71
2022/12/03 11:42:02;;;;;;;12.93;5.22;;;7.30;99.90;;;;;;4862541;29;20049;-68
2022/12/03 11:44:28;;;;;;;11.63;5.28;;;7.30;99.90;;;;;;4862655;29;20046;-68
2022/12/03 11:46:55;;;;;;;7.63;5.15;;;7.30;99.90;;;;;;4863214;29;20462;-68
2022/12/03 11:49:22;;;;;;;13.10;5.72;;;7.30;99.90;;;;;;4862355;29;20517;-67
2022/12/03 11:51:49;;;;;;;14.25;5.75;;;7.40;99.90;;;;;;4862446;29;20052;-66
2022/12/03 11:54:16;;;;;;;9.98;5.55;;;7.40;99.90;;;;;;4862535;29;20106;-65
2022/12/03 11:56:42;;;;;;;15.88;6.05;;;7.40;99.90;;;;;;4862194;29;20498;-67
2022/12/03 11:59:09;;;;;;;12.70;6.15;;;7.40;99.90;;;;;;4862399;29;20094;-68
2022/12/03 12:01:36;;;;;;;13.68;6.15;;;7.40;99.90;;;;;;4862645;29;20098;-69
2022/12/03 12:04:04;;;;;;;13.98;5.97;;;7.40;99.90;;;;;;4862196;29;20097;-67
2022/12/03 12:06:31;;;;;;;14.65;6.65;;;7.40;99.90;;;;;;4862236;29;20073;-69
2022/12/03 12:08:58;;;;;;;9.85;5.68;;;7.50;99.90;;;;;;4862365;29;20470;-69
2022/12/03 12:11:25;;;;;;;14.38;5.97;;;7.50;99.90;;;;;;4862024;29;20074;-70
2022/12/03 12:13:53;;;;;;;14.82;6.32;;;7.50;99.90;;;;;;4860345;29;20050;-67
2022/12/03 12:16:20;;;;;;;14.93;6.13;;;7.50;99.90;;;;;;4861900;29;20069;-66
2022/12/03 12:18:52;;;;;;;13.07;6.13;;;7.60;99.90;;;;;;4862409;29;20116;-68
2022/12/03 12:21:21;;;;;;;12.80;7.13;;;7.60;99.90;;;;;;4861836;29;20097;-66
2022/12/03 12:23:48;;;;;;;13.00;6.75;;;7.60;99.90;;;;;;4862104;29;20037;-67
2022/12/03 12:26:15;;;;;;;10.80;6.10;;;7.60;99.90;;;;;;4861828;29;20041;-66
2022/12/03 12:28:41;;;;;;;13.52;6.65;;;7.60;99.90;;;;;;4860650;29;20080;-67
2022/12/03 12:31:08;;;;;;;12.30;6.28;;;7.60;99.90;;;;;;4860513;29;20053;-68
2022/12/03 12:33:35;;;;;;;15.75;6.45;;;7.60;99.90;;;;;;4862169;29;20041;-68
2022/12/03 12:36:02;;;;;;;14.52;7.50;;;7.60;99.90;;;;;;4860175;29;20053;-66
2022/12/03 12:38:28;;;;;;;15.38;6.60;;;7.60;99.90;;;;;;4861497;29;20506;-67
2022/12/03 12:40:56;;;;;;;10.93;6.15;;;7.60;99.90;;;;;;4862151;29;20478;-68
2022/12/03 12:43:22;;;;;;;13.73;7.10;;;7.60;99.90;;;;;;4860511;29;20049;-68
2022/12/03 12:45:50;;;;;;;12.82;6.82;;;7.60;99.90;;;;;;4861111;29;20092;-69
2022/12/03 12:48:17;;;;;;;13.13;6.95;;;7.60;99.90;;;;;;4861950;29;20049;-67
2022/12/03 12:50:44;;;;;;;19.13;7.75;;;7.60;99.90;;;;;;4861919;29;20052;-67
2022/12/03 12:53:10;;;;;;;14.45;7.88;;;7.70;99.90;;;;;;4861767;29;20057;-69
2022/12/03 12:55:37;;;;;;;13.63;8.23;;;7.80;99.90;;;;;;4861668;29;20053;-69
2022/12/03 12:58:04;;;;;;;17.52;9.63;;;7.80;99.90;;;;;;4861419;29;20065;-66
2022/12/03 13:00:30;;;;;;;18.83;11.70;;;7.80;99.90;;;;;;4861898;29;20037;-66